Airfield :
LOGIN :

Register | Disclaimer

   EN    FR    IT 

 










Legend :    VFR   Marginal VFR   IFR   Intensive IFR   Very Intensive IFR
Visi :
Ceiling :
>= 8 km
>= 3000ft
5 to 8 km
1000 to 3000 ft
1500m to 5 km
500 to 1000 ft
800 to 1500m
200 to 500 ft
< 800m
< 200 ft
Symbols :   Thunderstorms  Fog  Heavy snow  Heavy precipitations  Wind > 20 kt
SIGMETs :     Misc.  Thunderstorms  Icing  Turbulence  Mountain Waves  Volcanic Ashes







- Airport Elevation : 776 ft
- IATA code : RMS


ETAR - Ramstein Air Base

CURRENT METAR :
  • 241658Z 05009G18KT 9999 CLR 11/05 A3028 RMK AO2A SLP261 T01110049 $

EXPIRED METARs :
  • 241558Z 04010G19KT 9999 SCT200 12/05 A3028 RMK AO2A SLP261 T01220053 $
  • 241458Z 05013KT 9999 SCT024 12/05 A3028 RMK AO2A SLP262 T01150051 55005 $

TAF TAF ETAR
Valid from the 24 at 10:00 until the 25 at 16:00 UTC


241014Z 2410/2516 05010G15KT 9999 BKN018 QNH3026INS
TEMPO 2410/2412 05015G20KT
BECMG 2411/2412 05010G20KT 9999 SCT025 BKN200 QNH3026INS
BECMG 2423/2424 06010G15KT 9999 SCT009 BKN015 QNH3030INS
TEMPO 2500/2504 05015G20KT
BECMG 2503/2504 06015G20KT 9999 BKN009 QNH3030INS
BECMG 2508/2509 06012G20KT 9999 BKN015 QNH3030INS
BECMG 2509/2510 07012G20KT 9999 SCT015 QNH3025INS TX16/2413Z TN00/2505Z
No reported NOTAMs for that airfield.



MET'MAP, your aeronautical weather chart ! - Copyright ORBIFLY December 2007 - Disclaimer

ORBIFLY MET'MAP TEAM :

Programming & Development : Alexandra Zaïnal
Concept & Development : Baudouin d'Aumeries
Co-Development & Prog : Marc-Olivier Méhu
Technical & hardware support : Manuel Goepfert

Contact : metmap@orbifly.com




SOURCES & CREDITS :

   NOAA